Estación Meteorológica Peña el Pijo (Robertgarden) [ 12/09/19 16:26:31 CET ]

Fecha Hora Presion(HPa) Temp (°C) Humedad % Rocio (°C) Viento ( m/s) Direccion Lluvia 1Hora(mm) Lluvia 24H(mm) LLuvia Total(mm)
2019-Aug-22 01:01:47 1014.600 16.1 89 14.3       4.14 371.63
2019-Aug-22 02:01:50 1014.100 16.3 90 14.7       4.14 371.63
2019-Aug-22 03:10:05 1013.500 15.5 90 13.9       4.14 371.63
2019-Aug-22 04:02:10 1013.200 14.8 91 13.4       4.14 371.63
2019-Aug-22 05:02:03 1013.000 14.6 91 13.2       4.14 371.63
2019-Aug-22 06:01:54 1013.300 13.6 91 12.2       4.14 371.63
2019-Aug-22 07:01:48 1013.600 13.3 91 11.9       4.14 371.63
2019-Aug-22 08:01:46 1013.800 13.0 92 11.7       4.14 371.63
2019-Aug-22 09:01:43 1013.900 16.1 92 14.8       4.14 371.63
2019-Aug-22 10:01:51 1013.800 19.4 89 17.5       4.14 371.63
2019-Aug-22 11:01:44 1014.100 23.1 72 17.8     0.51 4.66 372.15
2019-Aug-22 12:01:37 1014.100 25.6 58 16.7       4.66 372.15
2019-Aug-22 13:01:37 1014.000 27.6 46 14.9 1.9 S   4.14 372.15
2019-Aug-22 14:01:52 1013.600 28.7 45 15.6       4.14 372.15
2019-Aug-22 15:01:56 1013.400 29.2 40 14.3       4.14 372.15
2019-Aug-22 16:01:45 1013.100 31.3 35 13.9 1.8 NNW   4.14 372.15
2019-Aug-22 17:01:39 1012.800 30.4 33 12.2 2.0 WSW   4.14 372.15
2019-Aug-22 18:01:51 1012.800 29.2 33 11.2       0.51 372.15
2019-Aug-22 19:01:48 1012.700 27.1 42 13.1       0.51 372.15
2019-Aug-22 20:01:29 1012.800 23.8 54 13.9       0.51 372.15
2019-Aug-22 21:01:42 1013.300 21.9 60 13.8       0.51 372.15
2019-Aug-22 22:01:41 1013.900 20.1 64 13.0       0.51 372.15
2019-Aug-22 23:01:43 1014.300 19.3 70 13.7       0.51 372.15

Temperatura Máxima:31°    Temperatura Mínima:13°
Presión Máxima:1014.600 Hpa    Presión Mínima:1012.700 Hpa


Volver